createdAt,value
2017-07-21T00:02:04.846Z,14.30
2017-07-21T00:04:42.881Z,13.93
2017-07-21T00:07:11.054Z,14.57
2017-07-21T00:09:41.968Z,14.40
2017-07-21T00:12:10.113Z,14.90
2017-07-21T00:14:38.239Z,15.33
2017-07-21T00:17:07.902Z,15.87
2017-07-21T00:19:36.023Z,15.20
2017-07-21T00:22:25.969Z,16.87
2017-07-21T00:24:55.068Z,14.70
2017-07-21T00:27:27.118Z,16.87
2017-07-21T00:29:56.714Z,17.67
2017-07-21T00:32:30.412Z,17.07
2017-07-21T00:34:58.523Z,18.23
2017-07-21T00:37:26.658Z,17.40
2017-07-21T00:39:54.789Z,16.53
2017-07-21T00:42:22.973Z,16.27
2017-07-21T00:44:51.698Z,15.73
2017-07-21T00:47:20.067Z,16.23
2017-07-21T00:49:48.246Z,16.37
2017-07-21T00:52:16.410Z,16.97
2017-07-21T00:54:45.782Z,15.97
2017-07-21T00:57:21.383Z,16.67
2017-07-21T00:59:50.556Z,14.73
2017-07-21T01:02:18.688Z,14.67
2017-07-21T01:04:48.715Z,15.47
2017-07-21T01:07:17.590Z,15.57
2017-07-21T01:09:51.354Z,14.27
2017-07-21T01:12:19.465Z,14.30
2017-07-21T01:14:47.584Z,14.30
2017-07-21T01:20:16.928Z,13.70
2017-07-21T01:22:45.698Z,14.47
2017-07-21T01:25:14.485Z,14.80
2017-07-21T01:27:42.644Z,17.10
2017-07-21T01:30:10.775Z,15.27
2017-07-21T01:32:40.849Z,14.73
2017-07-21T01:35:10.745Z,14.90
2017-07-21T01:37:38.871Z,15.10
2017-07-21T01:40:10.962Z,13.57
2017-07-21T01:42:40.038Z,13.43
2017-07-21T01:45:08.150Z,14.10
2017-07-21T01:47:43.376Z,13.30
2017-07-21T01:50:13.406Z,13.20
2017-07-21T01:52:41.734Z,13.63
2017-07-21T01:55:14.757Z,11.83
2017-07-21T01:57:43.667Z,11.00
2017-07-21T02:00:11.815Z,12.53
2017-07-21T02:02:41.855Z,10.57
2017-07-21T02:05:09.978Z,11.17
2017-07-21T02:07:38.839Z,9.40
2017-07-21T02:10:14.113Z,8.77
2017-07-21T02:12:42.210Z,9.20
2017-07-21T02:15:10.322Z,6.43
2017-07-21T02:17:42.478Z,6.53
2017-07-21T02:20:27.541Z,9.73
2017-07-21T02:22:56.643Z,7.43
2017-07-21T02:25:28.306Z,7.43
2017-07-21T02:28:08.712Z,8.50
2017-07-21T02:30:36.871Z,8.77
2017-07-21T02:33:05.845Z,5.43
2017-07-21T02:35:33.954Z,9.30
2017-07-21T02:38:02.078Z,8.40
2017-07-21T02:40:31.850Z,5.90
2017-07-21T02:43:01.939Z,7.33
2017-07-21T02:45:30.047Z,6.50
2017-07-21T02:47:58.175Z,5.93
2017-07-21T02:50:27.230Z,6.80
2017-07-21T02:52:55.336Z,5.37
2017-07-21T02:55:23.426Z,4.73
2017-07-21T02:57:54.144Z,8.77
2017-07-21T03:00:38.137Z,5.30
2017-07-21T03:03:08.663Z,4.07
2017-07-21T03:05:36.784Z,4.60
2017-07-21T03:08:05.405Z,4.47
2017-07-21T03:10:33.510Z,5.93
2017-07-21T03:13:08.549Z,5.17
2017-07-21T03:15:48.038Z,5.50
2017-07-21T03:18:18.530Z,4.10
2017-07-21T03:20:46.690Z,5.53
2017-07-21T03:23:23.316Z,4.83
2017-07-21T03:25:51.413Z,2.80
2017-07-21T03:28:19.542Z,5.30
2017-07-21T03:30:47.669Z,5.27
2017-07-21T03:33:16.996Z,5.33
2017-07-21T03:35:45.106Z,5.93
2017-07-21T03:38:18.423Z,2.70
2017-07-21T03:40:53.974Z,6.30
2017-07-21T03:43:22.876Z,4.17
2017-07-21T03:45:51.018Z,7.87
2017-07-21T03:48:19.121Z,6.60
2017-07-21T03:50:47.226Z,8.13
2017-07-21T03:53:25.174Z,8.90
2017-07-21T03:55:53.292Z,6.60
2017-07-21T03:58:41.731Z,8.30
2017-07-21T04:01:09.876Z,8.93
2017-07-21T04:03:38.738Z,6.10
2017-07-21T04:06:07.597Z,8.00
2017-07-21T04:08:35.722Z,8.63
2017-07-21T04:11:09.010Z,6.30
2017-07-21T04:13:37.152Z,10.87
2017-07-21T04:16:05.251Z,8.57
2017-07-21T04:18:34.155Z,9.03
2017-07-21T04:21:08.382Z,6.10
2017-07-21T04:23:36.514Z,10.83
2017-07-21T04:26:04.689Z,10.53
2017-07-21T04:28:32.803Z,8.40
2017-07-21T04:31:01.682Z,8.40
2017-07-21T04:33:29.828Z,8.03
2017-07-21T04:35:57.923Z,7.43
2017-07-21T04:38:26.051Z,6.23
2017-07-21T04:40:54.185Z,9.50
2017-07-21T04:43:22.299Z,4.30
2017-07-21T04:45:50.409Z,4.63
2017-07-21T04:48:19.293Z,6.07
2017-07-21T04:50:58.392Z,6.37
2017-07-21T04:53:26.495Z,8.80
2017-07-21T04:55:54.595Z,7.93
2017-07-21T04:58:22.710Z,9.07
2017-07-21T05:00:50.837Z,4.40
2017-07-21T05:03:22.330Z,8.57
2017-07-21T05:05:50.464Z,5.50
2017-07-21T05:08:19.600Z,5.37
2017-07-21T05:10:47.764Z,5.50
2017-07-21T05:13:17.856Z,6.50
2017-07-21T05:15:46.782Z,7.53
2017-07-21T05:18:14.874Z,12.60
2017-07-21T05:21:02.751Z,5.93
2017-07-21T05:23:36.650Z,6.07
2017-07-21T05:26:04.867Z,8.77
2017-07-21T05:28:32.991Z,6.20
2017-07-21T05:31:08.774Z,11.40
2017-07-21T05:33:36.920Z,5.93
2017-07-21T05:36:05.009Z,5.33
2017-07-21T05:38:33.196Z,7.47
2017-07-21T05:41:01.324Z,7.90
2017-07-21T05:43:29.441Z,7.77
2017-07-21T05:45:57.574Z,6.50
2017-07-21T05:48:25.690Z,11.17
2017-07-21T05:51:00.009Z,13.40
2017-07-21T05:53:29.106Z,8.73
2017-07-21T05:55:57.246Z,10.20
2017-07-21T05:58:25.449Z,9.63
2017-07-21T06:00:53.604Z,10.40
2017-07-21T06:03:22.521Z,8.00
2017-07-21T06:05:50.636Z,10.47
2017-07-21T06:08:18.761Z,5.97
2017-07-21T06:10:55.549Z,8.23
2017-07-21T06:13:28.461Z,5.90
2017-07-21T06:16:16.734Z,10.33
2017-07-21T06:18:51.827Z,11.77
2017-07-21T06:21:27.810Z,9.63
2017-07-21T06:23:55.951Z,10.43
2017-07-21T06:26:29.043Z,7.13
2017-07-21T06:29:00.061Z,5.20
2017-07-21T06:31:28.278Z,5.83
2017-07-21T06:33:56.679Z,5.60
2017-07-21T06:36:27.314Z,4.73
2017-07-21T06:38:55.576Z,6.20
2017-07-21T06:41:23.831Z,5.63
2017-07-21T06:43:52.012Z,4.50
2017-07-21T06:46:21.212Z,6.00
2017-07-21T06:48:49.499Z,3.67
2017-07-21T06:51:18.111Z,5.10
2017-07-21T06:53:46.283Z,5.03
2017-07-21T06:56:14.731Z,7.00
2017-07-21T06:58:43.764Z,5.73
2017-07-21T07:01:11.892Z,5.60
2017-07-21T07:03:40.312Z,5.40
2017-07-21T07:06:08.626Z,4.13
2017-07-21T07:08:39.098Z,5.97
2017-07-21T07:11:09.467Z,5.83
2017-07-21T07:13:37.896Z,3.83
2017-07-21T07:16:06.074Z,4.67
2017-07-21T07:18:35.243Z,10.27
2017-07-21T07:21:03.401Z,4.60
2017-07-21T07:23:31.980Z,5.20
2017-07-21T07:26:00.493Z,5.60
2017-07-21T07:28:28.622Z,3.03
2017-07-21T07:30:58.478Z,5.80
2017-07-21T07:33:30.184Z,5.37
2017-07-21T07:36:04.230Z,9.30
2017-07-21T07:38:37.426Z,2.80
2017-07-21T07:41:06.203Z,7.10
2017-07-21T07:43:35.107Z,4.13
2017-07-21T07:46:03.269Z,3.57
2017-07-21T07:48:32.195Z,5.47
2017-07-21T07:51:01.196Z,7.50
2017-07-21T07:53:33.898Z,2.57
2017-07-21T07:56:02.028Z,6.40
2017-07-21T07:58:34.064Z,3.10
2017-07-21T08:01:02.268Z,5.27
2017-07-21T08:03:30.370Z,2.80
2017-07-21T08:06:02.726Z,8.53
2017-07-21T08:08:37.081Z,5.00
2017-07-21T08:11:05.200Z,6.10
2017-07-21T08:13:36.534Z,5.17
2017-07-21T08:16:07.035Z,3.60
2017-07-21T08:18:36.821Z,3.73
2017-07-21T08:21:05.913Z,3.87
2017-07-21T08:23:34.647Z,5.23
2017-07-21T08:26:05.748Z,3.10
2017-07-21T08:28:34.803Z,5.27
2017-07-21T08:31:09.328Z,7.47
2017-07-21T08:33:37.430Z,4.57
2017-07-21T08:36:08.771Z,6.30
2017-07-21T08:38:39.009Z,11.20
2017-07-21T08:41:08.739Z,2.57
2017-07-21T08:43:37.631Z,3.53
2017-07-21T08:46:07.076Z,2.87
2017-07-21T08:48:36.677Z,2.13
2017-07-21T08:51:04.868Z,2.63
2017-07-21T08:53:34.951Z,3.37
2017-07-21T09:37:08.166Z,2.50
2017-07-21T09:39:46.212Z,2.90
2017-07-21T09:42:15.820Z,4.57
2017-07-21T09:44:53.297Z,2.10
2017-07-21T14:54:19.120Z,2.77
2017-07-21T14:56:47.243Z,2.90
2017-07-21T14:59:15.378Z,3.60
2017-07-21T15:01:43.484Z,1.73
2017-07-21T15:04:11.610Z,2.10
2017-07-21T15:06:39.767Z,3.00
2017-07-21T15:09:07.927Z,4.63
2017-07-21T15:11:36.143Z,3.37
2017-07-21T15:14:04.346Z,3.20
2017-07-21T15:16:32.506Z,2.27
2017-07-21T15:19:00.699Z,4.77
2017-07-21T15:21:36.448Z,2.13
2017-07-21T15:24:04.580Z,3.00
2017-07-21T15:26:33.682Z,3.90
2017-07-21T15:29:01.956Z,4.90
2017-07-21T15:31:30.204Z,2.77
2017-07-21T15:33:58.514Z,3.30
2017-07-21T15:36:26.858Z,2.90
2017-07-21T15:38:55.092Z,3.00
2017-07-21T15:41:23.232Z,2.77
2017-07-21T15:43:53.694Z,2.60
2017-07-21T15:46:24.839Z,1.83
2017-07-21T15:48:54.934Z,2.10
2017-07-21T15:51:33.861Z,3.47
2017-07-21T15:54:02.010Z,3.30
2017-07-21T15:56:30.238Z,3.27
2017-07-21T15:58:58.411Z,3.10
2017-07-21T16:01:26.556Z,4.50
2017-07-21T16:03:54.702Z,4.73
2017-07-21T16:06:22.869Z,3.60
2017-07-21T16:08:51.095Z,5.07
2017-07-21T16:11:19.235Z,4.07
2017-07-21T16:13:47.380Z,1.67
2017-07-21T16:16:23.334Z,4.47
2017-07-21T16:18:52.544Z,1.63
2017-07-21T16:21:31.687Z,3.53
2017-07-21T16:24:07.130Z,3.30
2017-07-21T16:26:37.183Z,5.77
2017-07-21T16:29:08.088Z,4.03
2017-07-21T16:31:36.222Z,3.60
2017-07-21T16:34:04.414Z,5.60
2017-07-21T16:36:33.315Z,5.90
2017-07-21T16:39:01.487Z,2.30
2017-07-21T16:41:29.923Z,2.67
2017-07-21T16:43:59.858Z,4.07
2017-07-21T16:46:28.036Z,2.27
2017-07-21T16:48:56.168Z,2.40
2017-07-21T16:51:25.175Z,4.90
2017-07-21T16:53:53.880Z,3.00
2017-07-21T16:56:22.395Z,2.97
2017-07-21T16:58:50.555Z,2.53
2017-07-21T17:01:18.740Z,1.87
2017-07-21T17:03:47.672Z,2.10
2017-07-21T17:06:16.640Z,6.50
2017-07-21T17:08:44.988Z,2.30
2017-07-21T17:11:15.591Z,3.10
2017-07-21T17:13:45.301Z,2.93
2017-07-21T17:16:14.364Z,4.90
2017-07-21T17:18:42.567Z,3.97
2017-07-21T17:21:14.343Z,2.30
2017-07-21T17:23:43.001Z,1.93
2017-07-21T17:26:23.454Z,4.27
2017-07-21T17:28:53.308Z,4.50
2017-07-21T17:31:23.068Z,5.03
2017-07-21T17:33:51.981Z,3.07
2017-07-21T17:36:20.098Z,1.87
2017-07-21T17:38:50.302Z,6.30
2017-07-21T17:41:19.829Z,2.50
2017-07-21T17:43:48.026Z,3.20
2017-07-21T17:46:16.161Z,4.33
2017-07-21T17:48:45.329Z,3.73
2017-07-21T17:51:14.091Z,2.73
2017-07-21T17:53:43.009Z,3.03
2017-07-21T17:56:11.145Z,1.40
2017-07-21T17:58:39.284Z,3.30
2017-07-21T18:01:08.809Z,3.10
2017-07-21T18:03:37.238Z,2.00
2017-07-21T18:06:06.638Z,3.93
2017-07-21T18:08:45.442Z,2.40
2017-07-21T18:11:13.741Z,3.87
2017-07-21T18:13:41.874Z,3.50
2017-07-21T18:16:11.841Z,3.00
2017-07-21T18:18:40.000Z,5.40
2017-07-21T18:21:14.433Z,3.10
2017-07-21T18:23:42.825Z,1.90
2017-07-21T18:26:10.980Z,5.03
2017-07-21T18:28:39.185Z,5.80
2017-07-21T18:31:08.464Z,3.50
2017-07-21T18:33:36.649Z,2.87
2017-07-21T18:36:04.779Z,5.90
2017-07-21T18:38:32.942Z,2.57
2017-07-21T18:41:03.533Z,2.93
2017-07-21T18:43:33.819Z,2.97
2017-07-21T18:46:11.468Z,2.80
2017-07-21T18:48:40.603Z,3.10
2017-07-21T18:51:14.369Z,3.73
2017-07-21T18:53:43.378Z,3.20
2017-07-21T18:56:15.482Z,2.73
2017-07-21T19:01:28.119Z,4.73
2017-07-21T19:03:56.378Z,2.93
2017-07-21T19:06:26.691Z,2.27
2017-07-21T19:08:57.557Z,5.27
2017-07-21T19:11:25.721Z,7.63
2017-07-21T19:13:53.835Z,3.50
2017-07-21T19:16:22.996Z,2.83
2017-07-21T19:18:53.665Z,3.13
2017-07-21T19:21:23.409Z,4.60
2017-07-21T19:24:14.641Z,2.77
2017-07-21T19:26:42.976Z,4.73
2017-07-21T19:29:21.996Z,2.97
2017-07-21T19:34:36.479Z,3.20
2017-07-21T19:37:28.935Z,2.97
2017-07-21T19:40:01.552Z,2.00
2017-07-21T19:42:31.249Z,3.10
2017-07-21T19:45:01.904Z,3.93
2017-07-21T19:47:32.630Z,2.30
2017-07-21T19:50:03.082Z,3.10
2017-07-21T19:52:38.205Z,3.57
2017-07-21T19:55:07.133Z,3.67
2017-07-21T19:57:37.199Z,3.80
2017-07-21T20:00:14.248Z,2.63
2017-07-21T20:02:54.264Z,3.33
2017-07-21T20:05:41.084Z,9.40
2017-07-21T20:08:17.657Z,4.20
2017-07-21T20:16:23.878Z,12.20
2017-07-21T20:21:45.003Z,14.70
2017-07-21T20:24:25.479Z,3.03
2017-07-21T20:30:03.487Z,6.67
2017-07-21T20:32:32.312Z,5.27
2017-07-21T20:35:02.511Z,3.43
2017-07-21T20:37:32.406Z,4.10
2017-07-21T20:40:02.034Z,3.70
2017-07-21T20:42:30.197Z,5.03
2017-07-21T20:45:47.575Z,3.80
2017-07-21T20:48:35.131Z,7.03
2017-07-21T20:51:04.270Z,4.00
2017-07-21T20:53:36.315Z,5.47
2017-07-21T20:56:10.258Z,3.13
2017-07-21T20:58:38.705Z,4.60
2017-07-21T21:01:06.954Z,3.43
2017-07-21T21:03:52.945Z,2.80
2017-07-21T21:06:22.001Z,3.37
2017-07-21T21:08:56.188Z,7.40
2017-07-21T21:11:24.274Z,4.13
2017-07-21T21:13:53.245Z,5.67
2017-07-21T21:16:21.468Z,5.37
2017-07-21T21:18:49.605Z,3.27
2017-07-21T21:21:19.044Z,2.63
2017-07-21T21:23:47.242Z,2.20
2017-07-21T21:26:17.580Z,4.00
2017-07-21T21:28:46.897Z,4.90
2017-07-21T21:31:16.229Z,3.27
2017-07-21T21:33:44.395Z,5.10
2017-07-21T21:36:18.691Z,3.40
2017-07-21T21:38:48.163Z,4.50
2017-07-21T21:41:18.524Z,5.60
2017-07-21T21:43:47.279Z,2.23
2017-07-21T21:46:18.406Z,2.33
2017-07-21T21:48:47.325Z,2.90
2017-07-21T21:51:17.487Z,5.27
2017-07-21T21:53:46.522Z,3.60
2017-07-21T21:56:14.735Z,5.73
2017-07-21T21:58:42.948Z,3.83
2017-07-21T22:01:11.090Z,4.40
2017-07-21T22:03:41.231Z,5.30
2017-07-21T22:06:10.147Z,6.47
2017-07-21T22:08:38.318Z,2.30
2017-07-21T22:11:07.255Z,2.90
2017-07-21T22:16:30.531Z,3.20
2017-07-21T22:18:59.729Z,4.83
2017-07-21T22:21:27.852Z,4.73
2017-07-21T22:23:56.091Z,5.57
2017-07-21T22:26:24.214Z,2.73
2017-07-21T22:28:52.454Z,2.87
2017-07-21T22:31:21.938Z,2.50
2017-07-21T22:33:52.062Z,4.90
2017-07-21T22:36:22.049Z,6.53
2017-07-21T22:38:50.250Z,4.63
2017-07-21T22:41:18.784Z,5.60
2017-07-21T22:43:47.987Z,4.13
2017-07-21T22:46:17.967Z,3.37
2017-07-21T22:48:46.067Z,3.90
2017-07-21T22:51:20.823Z,4.17
2017-07-21T22:53:49.406Z,3.10
2017-07-21T22:56:17.521Z,2.97
2017-07-21T22:58:46.536Z,4.33
2017-07-21T23:01:14.695Z,3.00
2017-07-21T23:03:43.855Z,3.03
2017-07-21T23:06:15.051Z,3.90
2017-07-21T23:09:04.084Z,4.80
2017-07-21T23:11:36.281Z,4.93
2017-07-21T23:14:05.104Z,4.03
2017-07-21T23:16:35.762Z,3.23
2017-07-21T23:19:03.849Z,3.33
2017-07-21T23:21:32.727Z,3.63
2017-07-21T23:24:00.819Z,2.97
2017-07-21T23:26:28.913Z,4.83
2017-07-21T23:28:57.906Z,3.90
2017-07-21T23:31:26.043Z,3.20
2017-07-21T23:33:55.228Z,2.67
2017-07-21T23:36:24.050Z,2.77
2017-07-21T23:38:52.193Z,3.00
2017-07-21T23:41:20.277Z,5.43
2017-07-21T23:43:50.632Z,2.50
2017-07-21T23:46:18.721Z,4.67
2017-07-21T23:48:59.573Z,4.63
2017-07-21T23:51:27.794Z,3.63
2017-07-21T23:53:56.747Z,3.00
2017-07-21T23:56:24.851Z,4.33
2017-07-21T23:58:53.781Z,3.00
